createdAt,value
2023-03-31T00:00:54.275Z,14.38
2023-03-31T00:03:22.463Z,14.45
2023-03-31T00:05:55.501Z,14.44
2023-03-31T00:08:23.198Z,14.39
2023-03-31T00:10:50.868Z,14.45
2023-03-31T00:13:18.356Z,14.47
2023-03-31T00:15:46.171Z,14.39
2023-03-31T00:18:13.557Z,14.51
2023-03-31T00:20:43.043Z,14.38
2023-03-31T00:23:11.238Z,14.38
2023-03-31T00:25:41.968Z,14.41
2023-03-31T00:28:09.352Z,14.34
2023-03-31T00:30:37.050Z,14.26
2023-03-31T00:33:04.754Z,14.30
2023-03-31T00:35:32.246Z,14.22
2023-03-31T00:38:00.040Z,14.23
2023-03-31T00:40:27.502Z,14.15
2023-03-31T00:42:55.005Z,14.31
2023-03-31T00:45:24.632Z,14.10
2023-03-31T00:47:55.661Z,14.17
2023-03-31T00:50:29.113Z,14.08
2023-03-31T00:52:59.657Z,14.05
2023-03-31T00:55:46.295Z,13.90
2023-03-31T00:58:15.253Z,13.92
2023-03-31T01:00:43.118Z,13.78
2023-03-31T01:03:11.137Z,13.74
2023-03-31T01:05:51.006Z,13.80
2023-03-31T01:08:20.007Z,13.70
2023-03-31T01:10:49.838Z,13.62
2023-03-31T01:13:18.454Z,13.53
2023-03-31T01:15:46.252Z,13.57
2023-03-31T01:18:14.722Z,13.61
2023-03-31T01:21:03.806Z,13.47
2023-03-31T01:23:56.083Z,13.43
2023-03-31T01:26:44.637Z,13.52
2023-03-31T01:29:33.740Z,13.47
2023-03-31T01:32:38.817Z,13.24
2023-03-31T01:35:34.396Z,13.21
2023-03-31T01:38:23.208Z,13.18
2023-03-31T01:40:59.099Z,13.17
2023-03-31T01:43:32.360Z,13.17
2023-03-31T01:46:06.956Z,13.01
2023-03-31T01:48:45.670Z,13.08
2023-03-31T01:51:16.166Z,13.08
2023-03-31T01:53:55.257Z,13.05
2023-03-31T01:56:30.761Z,12.89
2023-03-31T01:59:02.628Z,12.81
2023-03-31T02:01:40.760Z,12.90
2023-03-31T02:04:14.715Z,12.78
2023-03-31T02:06:43.182Z,12.86
2023-03-31T02:09:15.978Z,12.75
2023-03-31T02:11:44.812Z,12.75
2023-03-31T02:14:18.737Z,12.77
2023-03-31T02:16:48.162Z,12.74
2023-03-31T02:19:18.822Z,12.63
2023-03-31T02:21:51.252Z,12.56
2023-03-31T02:24:20.508Z,12.52
2023-03-31T02:26:53.929Z,12.60
2023-03-31T02:29:21.817Z,12.66
2023-03-31T02:32:01.533Z,12.51
2023-03-31T02:34:29.384Z,12.46
2023-03-31T02:36:56.934Z,12.42
2023-03-31T02:39:28.315Z,12.34
2023-03-31T02:41:56.637Z,12.36
2023-03-31T02:44:24.514Z,12.26
2023-03-31T02:46:53.022Z,12.33
2023-03-31T02:49:21.413Z,12.14
2023-03-31T02:52:05.343Z,12.15
2023-03-31T02:54:56.288Z,12.14
2023-03-31T02:57:56.311Z,12.09
2023-03-31T03:00:40.726Z,12.18
2023-03-31T03:03:36.359Z,12.16
2023-03-31T03:06:14.159Z,12.09
2023-03-31T03:09:29.991Z,11.99
2023-03-31T03:12:33.185Z,12.00
2023-03-31T03:15:07.704Z,11.86
2023-03-31T03:17:39.606Z,11.74
2023-03-31T03:20:09.237Z,11.84
2023-03-31T03:22:38.122Z,11.81
2023-03-31T03:25:07.243Z,11.74
2023-03-31T03:27:35.967Z,11.74
2023-03-31T03:30:05.603Z,11.67
2023-03-31T03:32:33.816Z,11.75
2023-03-31T03:35:02.447Z,11.72
2023-03-31T03:37:30.389Z,11.75
2023-03-31T03:39:57.841Z,11.68
2023-03-31T03:42:25.388Z,11.71
2023-03-31T03:44:53.154Z,11.83
2023-03-31T03:47:20.651Z,11.81
2023-03-31T03:49:49.123Z,11.66
2023-03-31T03:52:17.142Z,11.61
2023-03-31T03:57:12.166Z,11.55
2023-03-31T03:59:39.848Z,11.39
2023-03-31T04:02:07.242Z,11.42
2023-03-31T04:04:34.990Z,11.40
2023-03-31T04:07:02.366Z,11.32
2023-03-31T04:09:29.807Z,11.26
2023-03-31T04:11:57.642Z,11.43
2023-03-31T04:14:25.969Z,11.26
2023-03-31T04:16:56.324Z,11.28
2023-03-31T04:19:25.961Z,11.44
2023-03-31T04:21:58.885Z,11.33
2023-03-31T04:24:30.869Z,11.25
2023-03-31T04:26:59.906Z,11.37
2023-03-31T04:29:27.688Z,11.11
2023-03-31T04:31:58.824Z,11.17
2023-03-31T04:34:35.184Z,11.15
2023-03-31T04:37:04.270Z,11.18
2023-03-31T04:39:31.784Z,11.25
2023-03-31T04:42:00.630Z,11.23
2023-03-31T04:44:28.833Z,11.21
2023-03-31T04:46:56.773Z,11.28
2023-03-31T04:49:24.293Z,11.22
2023-03-31T04:51:51.914Z,11.28
2023-03-31T04:54:19.289Z,11.43
2023-03-31T04:56:46.686Z,11.28
2023-03-31T04:59:14.435Z,11.32
2023-03-31T05:01:45.074Z,11.34
2023-03-31T05:04:12.682Z,11.29
2023-03-31T05:06:40.430Z,11.25
2023-03-31T05:09:09.695Z,11.20
2023-03-31T05:11:38.237Z,11.28
2023-03-31T05:14:06.117Z,11.28
2023-03-31T05:16:33.845Z,11.37
2023-03-31T05:19:01.344Z,11.40
2023-03-31T05:21:30.678Z,11.39
2023-03-31T05:23:58.107Z,11.43
2023-03-31T05:26:25.895Z,11.47
2023-03-31T05:28:54.154Z,11.58
2023-03-31T05:31:22.488Z,11.72
2023-03-31T05:33:50.042Z,11.88
2023-03-31T05:36:17.906Z,12.01
2023-03-31T05:38:45.996Z,12.25
2023-03-31T05:41:13.427Z,12.47
2023-03-31T05:43:41.195Z,12.70
2023-03-31T05:46:08.963Z,13.04
2023-03-31T05:48:38.059Z,13.40
2023-03-31T05:51:06.106Z,13.69
2023-03-31T05:53:34.155Z,13.86
2023-03-31T05:56:03.512Z,14.01
2023-03-31T05:58:31.629Z,14.10
2023-03-31T06:01:10.965Z,14.37
2023-03-31T06:03:43.788Z,14.53
2023-03-31T06:06:14.813Z,14.69
2023-03-31T06:08:43.665Z,14.76
2023-03-31T06:11:13.944Z,14.94
2023-03-31T06:13:41.946Z,14.95
2023-03-31T06:16:11.509Z,15.10
2023-03-31T06:18:39.731Z,15.11
2023-03-31T06:21:07.895Z,15.16
2023-03-31T06:23:35.617Z,15.22
2023-03-31T06:26:08.448Z,15.39
2023-03-31T06:28:36.495Z,15.53
2023-03-31T06:31:06.219Z,15.63
2023-03-31T06:33:34.758Z,15.71
2023-03-31T06:36:05.462Z,15.98
2023-03-31T06:38:34.840Z,15.92
2023-03-31T06:41:03.024Z,15.97
2023-03-31T06:43:30.873Z,16.23
2023-03-31T06:45:58.478Z,16.27
2023-03-31T06:48:27.126Z,16.32
2023-03-31T06:50:54.896Z,16.39
2023-03-31T06:53:22.394Z,16.44
2023-03-31T06:55:50.088Z,16.58
2023-03-31T06:58:17.538Z,16.86
2023-03-31T07:00:47.536Z,16.60
2023-03-31T07:03:18.761Z,16.86
2023-03-31T07:05:51.014Z,17.07
2023-03-31T07:08:18.834Z,17.18
2023-03-31T07:10:48.869Z,17.39
2023-03-31T07:13:17.139Z,17.45
2023-03-31T07:15:47.748Z,17.59
2023-03-31T07:18:16.172Z,17.61
2023-03-31T07:20:44.151Z,17.64
2023-03-31T07:23:11.845Z,17.67
2023-03-31T07:25:39.326Z,17.79
2023-03-31T07:28:06.867Z,17.71
2023-03-31T07:30:34.657Z,17.93
2023-03-31T07:33:02.709Z,17.87
2023-03-31T07:35:31.376Z,17.80
2023-03-31T07:37:59.388Z,18.01
2023-03-31T07:40:30.081Z,18.03
2023-03-31T07:42:57.633Z,18.26
2023-03-31T07:45:26.147Z,18.45
2023-03-31T07:47:53.723Z,18.25
2023-03-31T07:50:21.954Z,18.13
2023-03-31T07:52:50.725Z,18.18
2023-03-31T07:55:19.864Z,18.17
2023-03-31T07:57:47.771Z,18.05
2023-03-31T08:00:16.376Z,18.06
2023-03-31T08:02:44.511Z,18.25
2023-03-31T08:05:14.025Z,18.33
2023-03-31T08:07:44.895Z,18.48
2023-03-31T08:10:22.501Z,18.50
2023-03-31T08:12:49.977Z,18.65
2023-03-31T08:15:17.768Z,19.09
2023-03-31T08:17:45.620Z,19.32
2023-03-31T08:20:13.271Z,19.32
2023-03-31T08:22:41.194Z,19.15
2023-03-31T08:25:09.395Z,19.26
2023-03-31T08:27:39.394Z,19.08
2023-03-31T08:30:09.593Z,19.23
2023-03-31T08:32:37.380Z,19.32
2023-03-31T08:35:05.299Z,19.17
2023-03-31T08:37:33.300Z,19.28
2023-03-31T08:40:00.769Z,19.39
2023-03-31T08:42:50.334Z,19.36
2023-03-31T08:45:27.251Z,19.27
2023-03-31T08:47:59.704Z,19.43
2023-03-31T08:50:31.053Z,19.45
2023-03-31T08:53:09.076Z,19.60
2023-03-31T08:56:09.721Z,19.63
2023-03-31T08:58:42.939Z,19.75
2023-03-31T09:01:18.248Z,19.86
2023-03-31T09:04:17.369Z,19.66
2023-03-31T09:07:23.572Z,19.65
2023-03-31T09:10:03.377Z,19.65
2023-03-31T09:12:54.798Z,19.51
2023-03-31T09:15:28.435Z,19.59
2023-03-31T09:17:59.583Z,19.53
2023-03-31T09:20:48.821Z,19.29
2023-03-31T09:23:25.639Z,19.62
2023-03-31T09:25:53.258Z,19.63
2023-03-31T09:28:27.269Z,19.81
2023-03-31T09:30:55.489Z,19.71
2023-03-31T09:33:33.657Z,19.64
2023-03-31T09:36:02.004Z,19.89
2023-03-31T09:38:31.127Z,20.03
2023-03-31T09:40:59.433Z,20.00
2023-03-31T09:43:28.588Z,19.87
2023-03-31T09:46:09.334Z,19.87
2023-03-31T09:48:37.884Z,19.93
2023-03-31T09:51:07.588Z,19.89
2023-03-31T09:53:47.238Z,20.21
2023-03-31T09:56:34.460Z,20.17
2023-03-31T09:59:02.826Z,20.17
2023-03-31T10:01:30.580Z,20.21
2023-03-31T10:03:58.500Z,20.17
2023-03-31T10:06:26.931Z,20.26
2023-03-31T10:09:00.065Z,20.42
2023-03-31T10:11:28.121Z,20.40
2023-03-31T10:13:58.934Z,20.49
2023-03-31T10:16:29.443Z,20.37
2023-03-31T10:19:16.015Z,20.47
2023-03-31T10:21:46.047Z,20.24
2023-03-31T10:24:19.842Z,20.52
2023-03-31T10:26:53.723Z,20.60
2023-03-31T10:29:29.750Z,20.78
2023-03-31T10:32:03.701Z,20.58
2023-03-31T10:34:31.925Z,20.63
2023-03-31T10:36:59.843Z,20.68
2023-03-31T10:39:31.795Z,20.40
2023-03-31T10:41:59.395Z,20.52
2023-03-31T10:44:37.879Z,20.46
2023-03-31T10:47:14.538Z,20.44
2023-03-31T10:49:43.289Z,20.50
2023-03-31T10:52:17.858Z,20.42
2023-03-31T10:54:59.278Z,20.44
2023-03-31T10:57:40.290Z,20.68
2023-03-31T11:00:19.043Z,20.83
2023-03-31T11:03:08.234Z,20.79
2023-03-31T11:06:20.387Z,20.63
2023-03-31T11:09:01.915Z,20.58
2023-03-31T11:11:56.078Z,20.59
2023-03-31T11:14:45.242Z,20.71
2023-03-31T11:17:34.175Z,20.60
2023-03-31T11:20:07.773Z,20.39
2023-03-31T11:22:42.171Z,20.51
2023-03-31T11:25:23.770Z,20.67
2023-03-31T11:28:16.323Z,20.48
2023-03-31T11:31:08.854Z,20.35
2023-03-31T11:34:04.367Z,20.32
2023-03-31T11:36:52.729Z,20.36
2023-03-31T11:39:36.990Z,20.53
2023-03-31T11:42:19.084Z,20.68
2023-03-31T11:44:53.055Z,20.42
2023-03-31T11:47:24.599Z,20.79
2023-03-31T11:49:55.736Z,20.81
2023-03-31T11:52:40.706Z,21.02
2023-03-31T11:55:18.873Z,20.78
2023-03-31T11:57:50.746Z,20.93
2023-03-31T12:00:21.759Z,21.12
2023-03-31T12:02:55.517Z,21.27
2023-03-31T12:05:24.787Z,21.36
2023-03-31T12:08:05.149Z,21.48
2023-03-31T12:10:43.265Z,21.57
2023-03-31T12:13:34.495Z,21.93
2023-03-31T12:18:38.204Z,21.75
2023-03-31T12:21:06.616Z,21.55
2023-03-31T12:23:40.718Z,21.71
2023-03-31T12:26:17.009Z,21.57
2023-03-31T12:28:45.938Z,21.69
2023-03-31T12:31:20.717Z,21.52
2023-03-31T12:34:01.110Z,21.39
2023-03-31T12:37:06.500Z,21.50
2023-03-31T12:39:45.047Z,21.64
2023-03-31T12:42:40.873Z,21.62
2023-03-31T12:45:14.656Z,21.78
2023-03-31T12:47:42.039Z,21.71
2023-03-31T12:50:34.168Z,21.79
2023-03-31T12:53:25.201Z,21.91
2023-03-31T12:55:59.939Z,22.16
2023-03-31T12:58:31.903Z,22.31
2023-03-31T13:01:07.174Z,22.08
2023-03-31T13:03:45.626Z,22.00
2023-03-31T13:06:25.924Z,22.02
2023-03-31T13:09:00.940Z,22.01
2023-03-31T13:11:39.248Z,21.89
2023-03-31T13:14:06.520Z,21.85
2023-03-31T13:16:35.028Z,21.92
2023-03-31T13:19:02.768Z,22.04
2023-03-31T13:21:30.648Z,22.03
2023-03-31T13:24:02.086Z,21.92
2023-03-31T13:26:32.613Z,22.08
2023-03-31T13:29:11.974Z,22.01
2023-03-31T13:32:01.385Z,21.94
2023-03-31T13:34:48.437Z,21.84
2023-03-31T13:37:45.059Z,21.73
2023-03-31T13:40:50.617Z,21.58
2023-03-31T13:43:33.884Z,21.51
2023-03-31T13:46:33.795Z,20.98
2023-03-31T13:49:11.165Z,21.04
2023-03-31T13:52:03.270Z,21.01
2023-03-31T13:54:49.474Z,20.76
2023-03-31T13:57:39.565Z,20.89
2023-03-31T14:00:28.767Z,20.81
2023-03-31T14:03:11.687Z,20.84
2023-03-31T14:06:01.136Z,20.75
2023-03-31T14:08:53.424Z,20.73
2023-03-31T14:11:20.933Z,20.61
2023-03-31T14:14:13.002Z,20.61
2023-03-31T14:16:50.292Z,20.72
2023-03-31T14:19:55.373Z,20.74
2023-03-31T14:22:43.857Z,20.76
2023-03-31T14:25:40.946Z,20.62
2023-03-31T14:28:34.587Z,20.80
2023-03-31T14:31:13.550Z,20.73
2023-03-31T14:33:55.431Z,20.70
2023-03-31T14:36:29.452Z,20.79
2023-03-31T14:39:03.709Z,20.67
2023-03-31T14:41:31.558Z,20.68
2023-03-31T14:44:02.278Z,20.64
2023-03-31T14:46:32.886Z,20.70
2023-03-31T14:49:07.439Z,20.43
2023-03-31T14:51:34.860Z,20.60
2023-03-31T14:54:02.985Z,20.60
2023-03-31T14:56:36.049Z,20.57
2023-03-31T14:59:04.367Z,20.51
2023-03-31T15:01:39.717Z,20.40
2023-03-31T15:04:10.560Z,20.23
2023-03-31T15:06:39.972Z,20.25
2023-03-31T15:09:08.335Z,20.27
2023-03-31T15:11:35.943Z,20.30
2023-03-31T15:14:05.616Z,20.20
2023-03-31T15:16:44.272Z,19.76
2023-03-31T15:19:19.006Z,19.73
2023-03-31T15:21:53.828Z,19.97
2023-03-31T15:24:22.283Z,19.62
2023-03-31T15:26:55.961Z,19.66
2023-03-31T15:29:34.023Z,19.46
2023-03-31T15:32:02.011Z,19.80
2023-03-31T15:34:33.345Z,19.71
2023-03-31T15:37:01.719Z,19.57
2023-03-31T15:39:32.536Z,19.55
2023-03-31T15:42:03.412Z,19.48
2023-03-31T15:44:33.970Z,18.83
2023-03-31T15:47:06.690Z,19.15
2023-03-31T15:49:34.545Z,19.18
2023-03-31T15:52:04.490Z,19.06
2023-03-31T15:54:43.096Z,19.20
2023-03-31T15:57:36.127Z,19.01
2023-03-31T16:00:07.121Z,19.03
2023-03-31T16:02:44.146Z,19.23
2023-03-31T16:05:51.397Z,19.08
2023-03-31T16:08:38.098Z,19.19
2023-03-31T16:11:11.091Z,18.99
2023-03-31T16:13:41.351Z,19.00
2023-03-31T16:16:11.257Z,18.81
2023-03-31T16:18:50.214Z,18.76
2023-03-31T16:21:26.936Z,18.59
2023-03-31T16:23:57.461Z,18.62
2023-03-31T16:26:28.130Z,18.71
2023-03-31T16:28:57.476Z,18.40
2023-03-31T16:31:34.481Z,18.35
2023-03-31T16:34:04.716Z,18.51
2023-03-31T16:36:32.574Z,18.46
2023-03-31T16:39:02.276Z,18.42
2023-03-31T16:41:30.074Z,18.09
2023-03-31T16:43:57.838Z,17.71
2023-03-31T16:46:25.872Z,17.93
2023-03-31T16:48:53.536Z,18.00
2023-03-31T16:51:21.267Z,17.73
2023-03-31T16:53:48.741Z,17.75
2023-03-31T16:56:16.283Z,17.60
2023-03-31T16:58:44.071Z,17.51
2023-03-31T17:01:11.847Z,17.57
2023-03-31T17:03:41.720Z,17.47
2023-03-31T17:06:12.151Z,17.35
2023-03-31T17:08:39.998Z,17.43
2023-03-31T17:11:10.987Z,17.34
2023-03-31T17:13:39.807Z,17.46
2023-03-31T17:18:56.125Z,17.09
2023-03-31T17:21:24.338Z,17.08
2023-03-31T17:23:51.781Z,17.09
2023-03-31T17:26:19.490Z,17.19
2023-03-31T17:28:46.927Z,17.33
2023-03-31T17:31:19.421Z,17.26
2023-03-31T17:33:47.657Z,17.29
2023-03-31T17:36:15.721Z,17.18
2023-03-31T17:38:43.197Z,17.18
2023-03-31T17:41:12.952Z,17.45
2023-03-31T17:43:44.501Z,17.45
2023-03-31T17:46:12.859Z,17.27
2023-03-31T17:48:41.970Z,17.28
2023-03-31T17:51:15.460Z,17.23
2023-03-31T17:53:45.174Z,17.11
2023-03-31T17:56:14.169Z,17.03
2023-03-31T17:58:41.780Z,17.30
2023-03-31T18:01:10.527Z,17.26
2023-03-31T18:03:38.512Z,17.39
2023-03-31T18:06:08.503Z,17.48
2023-03-31T18:08:36.238Z,17.53
2023-03-31T18:11:05.641Z,17.56
2023-03-31T18:13:34.793Z,17.47
2023-03-31T18:16:02.728Z,17.40
2023-03-31T18:18:30.557Z,17.51
2023-03-31T18:20:58.142Z,17.42
2023-03-31T18:23:25.551Z,17.55
2023-03-31T18:25:53.279Z,17.33
2023-03-31T18:28:20.982Z,16.96
2023-03-31T18:30:48.525Z,17.37
2023-03-31T18:33:16.561Z,17.39
2023-03-31T18:35:44.550Z,17.30
2023-03-31T18:38:12.135Z,17.27
2023-03-31T18:40:39.784Z,17.12
2023-03-31T18:43:08.265Z,16.89
2023-03-31T18:45:38.509Z,16.68
2023-03-31T18:48:06.252Z,16.62
2023-03-31T18:50:33.926Z,16.58
2023-03-31T18:53:01.317Z,16.80
2023-03-31T18:55:29.662Z,16.53
2023-03-31T18:57:58.038Z,16.12
2023-03-31T19:00:25.503Z,16.11
2023-03-31T19:02:53.679Z,16.02
2023-03-31T19:05:21.461Z,15.64
2023-03-31T19:07:48.817Z,15.38
2023-03-31T19:10:16.769Z,14.86
2023-03-31T19:12:48.594Z,14.69
2023-03-31T19:15:16.680Z,14.97
2023-03-31T19:17:44.124Z,14.81
2023-03-31T19:20:16.503Z,14.72
2023-03-31T19:22:49.368Z,14.76
2023-03-31T19:25:19.563Z,14.76
2023-03-31T19:27:47.304Z,14.47
2023-03-31T19:30:24.335Z,14.55
2023-03-31T19:32:52.128Z,14.50
2023-03-31T19:35:19.858Z,14.48
2023-03-31T19:37:48.741Z,14.29
2023-03-31T19:40:16.518Z,14.44
2023-03-31T19:42:44.559Z,14.33
2023-03-31T19:45:12.245Z,14.18
2023-03-31T19:47:40.144Z,14.00
2023-03-31T19:50:08.579Z,13.92
2023-03-31T19:52:36.558Z,13.91
2023-03-31T19:55:04.975Z,13.97
2023-03-31T19:57:32.634Z,13.93
2023-03-31T20:00:01.315Z,13.42
2023-03-31T20:02:32.870Z,13.32
2023-03-31T20:05:01.777Z,13.20
2023-03-31T20:07:30.087Z,13.33
2023-03-31T20:09:57.642Z,12.94
2023-03-31T20:12:25.323Z,13.37
2023-03-31T20:14:52.797Z,13.17
2023-03-31T20:17:20.697Z,13.24
2023-03-31T20:19:48.349Z,13.28
2023-03-31T20:22:15.955Z,13.43
2023-03-31T20:24:43.456Z,13.20
2023-03-31T20:27:11.238Z,13.47
2023-03-31T20:29:38.669Z,13.11
2023-03-31T20:32:06.232Z,13.01
2023-03-31T20:34:34.086Z,13.25
2023-03-31T20:37:03.297Z,13.10
2023-03-31T20:39:31.114Z,12.87
2023-03-31T20:41:58.759Z,12.85
2023-03-31T20:44:26.497Z,12.82
2023-03-31T20:46:55.501Z,12.84
2023-03-31T20:49:23.303Z,12.96
2023-03-31T20:51:51.013Z,12.70
2023-03-31T20:54:18.528Z,12.56
2023-03-31T20:56:47.133Z,12.33
2023-03-31T20:59:15.193Z,12.92
2023-03-31T21:01:42.982Z,12.71
2023-03-31T21:04:11.908Z,12.34
2023-03-31T21:06:42.309Z,12.53
2023-03-31T21:09:11.722Z,12.59
2023-03-31T21:11:40.773Z,12.47
2023-03-31T21:14:11.599Z,12.66
2023-03-31T21:16:40.266Z,12.69
2023-03-31T21:19:07.681Z,12.77
2023-03-31T21:21:36.088Z,12.78
2023-03-31T21:24:04.029Z,12.97
2023-03-31T21:26:31.415Z,13.13
2023-03-31T21:28:58.833Z,13.24
2023-03-31T21:31:27.232Z,13.32
2023-03-31T21:33:57.528Z,13.46
2023-03-31T21:36:25.542Z,13.62
2023-03-31T21:38:54.083Z,13.81
2023-03-31T21:41:24.131Z,13.84
2023-03-31T21:43:52.164Z,13.92
2023-03-31T21:46:23.463Z,13.96
2023-03-31T21:48:50.944Z,13.62
2023-03-31T21:51:20.003Z,13.87
2023-03-31T21:53:48.495Z,13.95
2023-03-31T21:56:16.366Z,14.07
2023-03-31T21:58:43.803Z,14.08
2023-03-31T22:01:11.727Z,14.18
2023-03-31T22:03:42.139Z,14.09
2023-03-31T22:06:09.851Z,14.11
2023-03-31T22:08:38.912Z,14.26
2023-03-31T22:11:08.645Z,14.21
2023-03-31T22:13:36.615Z,14.25
2023-03-31T22:16:05.441Z,14.27
2023-03-31T22:18:33.213Z,14.26
2023-03-31T22:21:02.483Z,14.27
2023-03-31T22:23:29.934Z,14.19
2023-03-31T22:25:57.672Z,14.10
2023-03-31T22:28:25.022Z,14.16
2023-03-31T22:30:52.396Z,14.22
2023-03-31T22:33:20.046Z,14.26
2023-03-31T22:35:49.250Z,14.17
2023-03-31T22:38:16.698Z,13.88
2023-03-31T22:40:44.340Z,13.98
2023-03-31T22:43:11.696Z,14.04
2023-03-31T22:45:39.186Z,14.06
2023-03-31T22:48:08.603Z,14.03
2023-03-31T22:50:36.158Z,14.04
2023-03-31T22:53:03.654Z,14.12
2023-03-31T22:55:31.577Z,13.99
2023-03-31T22:57:59.082Z,13.99
2023-03-31T23:00:27.177Z,14.03
2023-03-31T23:02:54.906Z,14.17
2023-03-31T23:05:24.279Z,14.09
2023-03-31T23:07:51.875Z,14.08
2023-03-31T23:10:19.658Z,14.11
2023-03-31T23:12:47.363Z,13.99
2023-03-31T23:15:14.911Z,14.10
2023-03-31T23:17:42.610Z,14.07
2023-03-31T23:20:10.602Z,14.07
2023-03-31T23:22:38.000Z,13.96
2023-03-31T23:25:06.410Z,14.03
2023-03-31T23:27:33.906Z,13.88
2023-03-31T23:30:01.426Z,13.83
2023-03-31T23:32:29.113Z,13.75
2023-03-31T23:34:56.485Z,13.88
2023-03-31T23:37:23.920Z,13.79
2023-03-31T23:39:52.060Z,13.80
2023-03-31T23:42:20.772Z,13.80
2023-03-31T23:44:48.426Z,13.76
2023-03-31T23:47:16.259Z,13.73
2023-03-31T23:49:43.943Z,13.68
2023-03-31T23:52:11.397Z,13.65
2023-03-31T23:54:39.031Z,13.76
2023-03-31T23:57:06.456Z,13.76
2023-03-31T23:59:33.979Z,13.71
